バクー の空港の天気 - METARとTAF

ヘイダル・アリエフ国際空港(バクー) ( UBBB / BAK ) - アゼルバイジャン バクー
飛行場実況気象(Metar)
観測時間04/19 15:30 AZT (04/19 11:30 UTC)
風向・風速南 10m/s 瞬間風速15m/s
視程10km以上
天気現象
なし
気温16℃
湿度63%
気圧1011hPa
METARUBBB 191130Z 17020G30KT CAVOK 16/09 Q1011 R88/D NOSIG
過去の天気等 Google飛行場航空写真 Wunderground天気予報

過去48時間のMETAR

飛行場予報(TAF)
発表時間: 4/19 15:01 AZT (4/19 11:01 UTC)
予報対象時間: 19日16時 AZT ~ 20日16時 AZT
風向・風速南 10m/s 瞬間風速 15m/s
視程10km以上
なし
20日1時 AZT ~ 20日3時 AZT に徐々に
風向・風速南 6m/s
20日3時 AZT ~ 20日7時 AZT に一時的に
風向・風速不定 2m/s
視程5,000m
天気現象もや
全天の8割程度の雲 雲底高度 210m
20日7時 AZT ~ 20日9時 AZT に徐々に
風向・風速北北西 6m/s 瞬間風速 11m/s
全天の4割程度の雲 雲底高度 300m
全天の8割程度の雲 雲底高度 1,220m
TAF UBBB 191101Z 1912/2012 17020G30KT CAVOK TX15/1912Z TN09/2003Z
BECMG 1921/1923 19012KT
TEMPO 1923/2003 VRB04KT 5000 BR BKN007
BECMG 2003/2005 34012G22KT SCT010 BKN040